YINO weather

Inverell North Airport
New South Wales, Australia

Public forecast

Using degrees Celsius for public forecast. Weather courtesy of forecast.io.

Closest aviation weather report (METAR) to Inverell North Airport

Closest report is Moree Airport, 70.8 nm (131.2 km) WNW. Retrieved 2019/10/15 09:00 UTC (52 minutes ago):

YMOR 150900Z AUTO 36005KT 9999 // NCD 28/08 Q1009

Closest aviation forecast (TAF) to Inverell North Airport

Closest forecast is Tamworth Airport, 80.8 nm (149.6 km) SSW. Retrieved 2019/10/15 06:36 UTC (3 hours ago):

TAF YSTW 150447Z 1506/1524 20008KT CAVOK BECMG 1508/1510 15005KT CAVOK FM152200 33010KT CAVOK